createdAt,value
2022-10-11T00:01:48.783Z,6.59
2022-10-11T00:04:16.135Z,6.61
2022-10-11T00:06:55.536Z,6.69
2022-10-11T00:09:35.476Z,6.78
2022-10-11T00:12:02.931Z,6.79
2022-10-11T00:14:42.637Z,6.78
2022-10-11T00:17:23.782Z,6.77
2022-10-11T00:20:04.402Z,6.71
2022-10-11T00:22:31.637Z,6.61
2022-10-11T00:25:12.590Z,6.50
2022-10-11T00:27:54.708Z,6.39
2022-10-11T00:30:34.957Z,6.37
2022-10-11T00:33:14.709Z,6.40
2022-10-11T00:35:56.168Z,6.40
2022-10-11T00:38:36.280Z,6.37
2022-10-11T00:41:17.145Z,6.41
2022-10-11T00:44:25.573Z,6.43
2022-10-11T00:47:09.211Z,6.37
2022-10-11T00:49:53.945Z,6.32
2022-10-11T00:52:37.977Z,6.30
2022-10-11T00:55:21.157Z,6.36
2022-10-11T00:58:00.102Z,6.40
2022-10-11T01:00:39.505Z,6.36
2022-10-11T01:03:25.433Z,6.34
2022-10-11T01:06:07.794Z,6.39
2022-10-11T01:08:50.323Z,6.39
2022-10-11T01:11:31.354Z,6.38
2022-10-11T01:14:28.004Z,6.38
2022-10-11T01:17:20.182Z,6.40
2022-10-11T01:20:27.382Z,6.46
2022-10-11T01:23:30.473Z,6.46
2022-10-11T01:26:34.469Z,6.47
2022-10-11T01:29:25.528Z,6.40
2022-10-11T01:32:15.410Z,6.38
2022-10-11T01:35:01.816Z,6.35
2022-10-11T01:37:47.192Z,6.32
2022-10-11T01:40:34.197Z,6.27
2022-10-11T01:43:16.263Z,6.25
2022-10-11T01:45:58.365Z,6.23
2022-10-11T01:48:49.214Z,6.21
2022-10-11T01:51:31.894Z,6.18
2022-10-11T01:54:56.652Z,6.16
2022-10-11T01:58:03.611Z,6.08
2022-10-11T02:00:52.505Z,6.08
2022-10-11T02:03:45.477Z,6.12
2022-10-11T02:06:32.851Z,6.13
2022-10-11T02:09:17.256Z,6.11
2022-10-11T02:12:02.437Z,6.00
2022-10-11T02:14:46.176Z,6.01
2022-10-11T02:17:32.259Z,5.95
2022-10-11T02:20:16.391Z,5.89
2022-10-11T02:23:03.984Z,5.94
2022-10-11T02:25:45.766Z,5.94
2022-10-11T02:28:29.969Z,5.90
2022-10-11T02:31:12.157Z,5.89
2022-10-11T02:34:00.320Z,5.86
2022-10-11T02:36:47.508Z,5.72
2022-10-11T02:39:35.788Z,5.74
2022-10-11T02:42:20.543Z,5.65
2022-10-11T02:45:05.916Z,5.57
2022-10-11T02:47:48.000Z,5.49
2022-10-11T02:50:27.933Z,5.49
2022-10-11T02:53:09.043Z,5.51
2022-10-11T02:55:48.521Z,5.53
2022-10-11T02:58:29.530Z,5.50
2022-10-11T03:01:11.195Z,5.46
2022-10-11T03:03:50.905Z,5.49
2022-10-11T03:06:31.169Z,5.53
2022-10-11T03:09:10.299Z,5.51
2022-10-11T03:11:51.744Z,5.50
2022-10-11T03:14:33.091Z,5.42
2022-10-11T03:17:35.203Z,5.37
2022-10-11T03:20:14.182Z,5.36
2022-10-11T03:22:53.328Z,5.36
2022-10-11T03:25:33.147Z,5.35
2022-10-11T03:28:14.792Z,5.30
2022-10-11T03:30:54.399Z,5.28
2022-10-11T03:33:34.405Z,5.22
2022-10-11T03:36:14.033Z,5.13
2022-10-11T03:38:52.382Z,5.05
2022-10-11T03:41:32.436Z,5.03
2022-10-11T03:44:11.839Z,4.97
2022-10-11T03:46:51.640Z,4.94
2022-10-11T03:49:33.105Z,4.93
2022-10-11T03:52:12.745Z,4.92
2022-10-11T03:54:52.966Z,4.85
2022-10-11T03:57:34.112Z,4.82
2022-10-11T04:00:14.359Z,4.80
2022-10-11T04:02:55.280Z,4.89
2022-10-11T04:05:35.294Z,5.00
2022-10-11T04:08:21.159Z,5.13
2022-10-11T04:11:01.259Z,5.24
2022-10-11T04:13:53.132Z,5.25
2022-10-11T04:16:32.646Z,5.20
2022-10-11T04:19:14.100Z,5.17
2022-10-11T04:21:53.895Z,5.17
2022-10-11T04:24:34.122Z,5.18
2022-10-11T04:27:40.325Z,5.28
2022-10-11T04:30:18.799Z,5.29
2022-10-11T04:32:59.361Z,5.26
2022-10-11T04:35:40.748Z,5.26
2022-10-11T04:38:22.712Z,5.31
2022-10-11T04:41:08.789Z,5.37
2022-10-11T04:43:48.619Z,5.39
2022-10-11T04:46:28.217Z,5.47
2022-10-11T04:49:06.359Z,5.56
2022-10-11T04:51:45.916Z,5.69
2022-10-11T04:54:24.461Z,5.90
2022-10-11T04:57:04.218Z,6.14
2022-10-11T04:59:45.521Z,6.45
2022-10-11T05:02:30.008Z,6.85
2022-10-11T05:05:10.385Z,7.18
2022-10-11T05:07:49.636Z,7.43
2022-10-11T05:10:32.674Z,7.57
2022-10-11T05:13:12.403Z,7.67
2022-10-11T05:15:54.087Z,7.74
2022-10-11T05:18:32.336Z,7.74
2022-10-11T05:21:16.148Z,7.68
2022-10-11T05:23:57.305Z,7.68
2022-10-11T05:26:37.930Z,7.74
2022-10-11T05:29:17.783Z,7.81
2022-10-11T05:31:59.134Z,7.93
2022-10-11T05:34:39.291Z,8.03
2022-10-11T05:37:17.218Z,8.07
2022-10-11T05:39:57.122Z,8.17
2022-10-11T05:42:37.048Z,8.30
2022-10-11T05:45:15.113Z,8.35
2022-10-11T05:47:53.545Z,8.40
2022-10-11T05:50:35.045Z,8.52
2022-10-11T05:53:16.348Z,8.60
2022-10-11T05:55:56.452Z,8.65
2022-10-11T05:58:35.499Z,8.74
2022-10-11T06:01:22.012Z,8.85
2022-10-11T06:04:00.184Z,8.97
2022-10-11T06:06:41.565Z,8.99
2022-10-11T06:09:19.860Z,9.02
2022-10-11T06:11:59.353Z,9.13
2022-10-11T06:14:52.929Z,9.27
2022-10-11T06:17:53.248Z,9.24
2022-10-11T06:20:32.328Z,9.18
2022-10-11T06:23:29.535Z,9.28
2022-10-11T06:26:27.754Z,9.48
2022-10-11T06:29:05.737Z,9.66
2022-10-11T06:32:10.301Z,9.79
2022-10-11T06:34:49.285Z,9.90
2022-10-11T06:37:27.500Z,10.06
2022-10-11T06:40:24.525Z,10.22
2022-10-11T06:43:03.109Z,10.35
2022-10-11T06:45:42.888Z,10.50
2022-10-11T06:48:21.021Z,10.48
2022-10-11T06:51:21.912Z,10.61
2022-10-11T06:54:02.200Z,10.70
2022-10-11T06:56:41.313Z,10.90
2022-10-11T06:59:20.004Z,10.94
2022-10-11T07:02:48.059Z,11.09
2022-10-11T07:05:42.752Z,11.20
2022-10-11T07:08:21.879Z,11.33
2022-10-11T07:11:04.441Z,11.46
2022-10-11T07:13:50.264Z,11.54
2022-10-11T07:16:29.506Z,11.55
2022-10-11T07:19:30.269Z,11.50
2022-10-11T07:22:10.756Z,11.58
2022-10-11T07:25:09.841Z,11.77
2022-10-11T07:28:12.897Z,11.87
2022-10-11T07:31:09.938Z,11.59
2022-10-11T07:34:09.847Z,11.77
2022-10-11T07:36:48.752Z,11.85
2022-10-11T07:39:42.046Z,11.73
2022-10-11T07:42:36.551Z,11.58
2022-10-11T07:45:34.294Z,11.91
2022-10-11T07:48:12.784Z,12.23
2022-10-11T07:51:12.385Z,11.96
2022-10-11T07:54:10.246Z,12.12
2022-10-11T07:56:49.067Z,12.43
2022-10-11T07:59:27.467Z,12.74
2022-10-11T08:02:08.888Z,12.93
2022-10-11T08:05:02.901Z,12.97
2022-10-11T08:08:16.461Z,13.21
2022-10-11T08:11:19.250Z,13.30
2022-10-11T08:14:18.392Z,13.45
2022-10-11T08:16:57.236Z,13.67
2022-10-11T08:19:35.466Z,13.73
2022-10-11T08:22:44.422Z,13.58
2022-10-11T08:25:43.922Z,13.81
2022-10-11T08:28:44.148Z,13.97
2022-10-11T08:31:45.970Z,14.12
2022-10-11T08:34:24.194Z,14.16
2022-10-11T08:37:02.238Z,14.09
2022-10-11T08:39:40.892Z,14.00
2022-10-11T08:42:29.415Z,13.93
2022-10-11T08:45:11.017Z,13.81
2022-10-11T08:47:43.164Z,13.58
2022-10-11T08:50:17.681Z,13.57
2022-10-11T08:52:53.880Z,13.84
2022-10-11T08:55:29.687Z,14.19
2022-10-11T08:57:59.617Z,14.44
2022-10-11T09:00:32.795Z,14.51
2022-10-11T09:03:08.974Z,14.62
2022-10-11T09:05:59.376Z,14.94
2022-10-11T09:08:44.857Z,14.89
2022-10-11T09:11:20.329Z,14.49
2022-10-11T09:14:20.829Z,14.49
2022-10-11T09:16:58.792Z,14.84
2022-10-11T09:19:42.601Z,15.24
2022-10-11T09:22:17.437Z,15.46
2022-10-11T09:25:12.298Z,15.74
2022-10-11T09:28:01.700Z,15.89
2022-10-11T09:30:32.158Z,15.83
2022-10-11T09:33:12.144Z,15.89
2022-10-11T09:35:42.735Z,15.95
2022-10-11T09:38:18.891Z,16.07
2022-10-11T09:40:58.854Z,16.08
2022-10-11T09:43:26.071Z,15.69
2022-10-11T09:45:54.741Z,15.67
2022-10-11T09:48:25.426Z,15.85
2022-10-11T09:50:58.686Z,16.11
2022-10-11T09:53:50.691Z,16.30
2022-10-11T09:56:18.135Z,16.56
2022-10-11T09:58:45.590Z,16.68
2022-10-11T10:01:24.428Z,16.75
2022-10-11T10:04:07.392Z,16.90
2022-10-11T10:06:35.561Z,17.03
2022-10-11T10:09:35.806Z,17.03
2022-10-11T10:12:12.459Z,16.95
2022-10-11T10:14:41.491Z,16.80
2022-10-11T10:17:17.362Z,16.52
2022-10-11T10:19:50.541Z,16.34
2022-10-11T10:22:20.521Z,16.23
2022-10-11T10:24:49.281Z,16.30
2022-10-11T10:27:21.272Z,16.43
2022-10-11T10:30:13.666Z,16.47
2022-10-11T10:32:48.954Z,16.56
2022-10-11T10:35:27.552Z,16.30
2022-10-11T10:38:05.732Z,16.34
2022-10-11T10:40:40.785Z,16.47
2022-10-11T10:43:15.761Z,16.59
2022-10-11T10:46:10.010Z,16.69
2022-10-11T10:49:23.173Z,16.65
2022-10-11T10:51:44.306Z,16.55
2022-10-11T10:54:18.259Z,16.61
2022-10-11T10:56:51.290Z,16.64
2022-10-11T10:59:36.731Z,16.65
2022-10-11T11:02:39.268Z,16.59
2022-10-11T11:05:11.901Z,16.69
2022-10-11T11:07:46.278Z,16.77
2022-10-11T11:10:18.620Z,16.87
2022-10-11T11:12:53.616Z,16.97
2022-10-11T11:15:32.516Z,16.96
2022-10-11T11:18:17.255Z,17.03
2022-10-11T11:20:59.819Z,16.87
2022-10-11T11:23:37.478Z,16.82
2022-10-11T11:26:14.598Z,16.79
2022-10-11T11:28:58.056Z,16.87
2022-10-11T11:31:41.301Z,17.05
2022-10-11T11:34:20.776Z,17.06
2022-10-11T11:36:54.742Z,17.01
2022-10-11T11:39:25.408Z,17.00
2022-10-11T11:41:58.015Z,17.03
2022-10-11T11:44:30.267Z,17.01
2022-10-11T11:47:02.570Z,16.96
2022-10-11T11:49:35.007Z,16.99
2022-10-11T11:52:05.734Z,16.99
2022-10-11T11:54:44.652Z,17.01
2022-10-11T11:57:22.134Z,17.14
2022-10-11T11:59:57.030Z,17.21
2022-10-11T12:02:43.836Z,17.34
2022-10-11T12:05:14.028Z,17.32
2022-10-11T12:07:55.846Z,17.31
2022-10-11T12:10:31.359Z,17.38
2022-10-11T12:13:07.164Z,17.46
2022-10-11T12:15:34.676Z,17.46
2022-10-11T12:18:06.099Z,17.37
2022-10-11T12:20:40.980Z,17.28
2022-10-11T12:23:44.965Z,17.22
2022-10-11T12:26:37.531Z,17.26
2022-10-11T12:29:42.822Z,17.32
2022-10-11T12:32:50.332Z,17.36
2022-10-11T12:35:56.451Z,17.36
2022-10-11T12:38:25.800Z,17.25
2022-10-11T12:40:57.140Z,17.35
2022-10-11T12:43:35.874Z,17.35
2022-10-11T12:46:39.419Z,17.47
2022-10-11T12:49:38.420Z,17.50
2022-10-11T12:52:37.950Z,17.54
2022-10-11T12:55:23.691Z,17.70
2022-10-11T12:58:29.772Z,17.75
2022-10-11T13:01:10.622Z,17.84
2022-10-11T13:03:40.903Z,17.79
2022-10-11T13:06:15.927Z,17.79
2022-10-11T13:08:45.308Z,17.79
2022-10-11T13:11:19.880Z,17.72
2022-10-11T13:13:53.999Z,17.72
2022-10-11T13:16:24.961Z,17.60
2022-10-11T13:18:57.487Z,17.22
2022-10-11T13:21:29.566Z,16.79
2022-10-11T13:23:59.310Z,16.34
2022-10-11T13:26:28.018Z,16.10
2022-10-11T13:28:57.200Z,15.78
2022-10-11T13:31:25.432Z,15.47
2022-10-11T13:33:57.681Z,15.25
2022-10-11T13:36:27.163Z,15.09
2022-10-11T13:38:56.696Z,14.95
2022-10-11T13:41:26.280Z,14.86
2022-10-11T13:43:54.835Z,14.85
2022-10-11T13:46:25.370Z,14.77
2022-10-11T13:49:00.465Z,14.69
2022-10-11T13:51:32.567Z,14.60
2022-10-11T13:54:02.682Z,14.51
2022-10-11T13:56:32.908Z,14.38
2022-10-11T13:59:01.543Z,14.16
2022-10-11T14:01:39.705Z,14.22
2022-10-11T14:04:09.445Z,14.20
2022-10-11T14:06:46.372Z,14.16
2022-10-11T14:09:20.629Z,14.15
2022-10-11T14:11:48.369Z,14.11
2022-10-11T14:14:41.197Z,14.13
2022-10-11T14:17:16.013Z,14.09
2022-10-11T14:19:44.460Z,14.01
2022-10-11T14:22:16.718Z,13.94
2022-10-11T14:24:46.611Z,13.98
2022-10-11T14:27:19.403Z,13.84
2022-10-11T14:30:06.149Z,13.77
2022-10-11T14:32:36.567Z,13.72
2022-10-11T14:35:04.154Z,13.65
2022-10-11T14:37:31.505Z,13.59
2022-10-11T14:39:58.693Z,13.55
2022-10-11T14:42:25.861Z,13.46
2022-10-11T14:44:53.044Z,13.38
2022-10-11T14:47:20.565Z,13.32
2022-10-11T14:49:49.123Z,13.29
2022-10-11T14:52:16.365Z,13.16
2022-10-11T14:54:43.696Z,12.96
2022-10-11T14:57:12.198Z,12.81
2022-10-11T14:59:40.121Z,12.64
2022-10-11T15:02:11.293Z,12.58
2022-10-11T15:04:38.488Z,12.52
2022-10-11T15:07:07.441Z,12.49
2022-10-11T15:09:34.625Z,12.42
2022-10-11T15:12:02.072Z,12.35
2022-10-11T15:14:29.339Z,12.27
2022-10-11T15:16:57.460Z,12.23
2022-10-11T15:19:25.623Z,12.21
2022-10-11T15:21:53.178Z,12.14
2022-10-11T15:24:22.108Z,12.02
2022-10-11T15:26:58.276Z,11.90
2022-10-11T15:29:28.655Z,11.78
2022-10-11T15:31:56.233Z,11.73
2022-10-11T15:34:23.517Z,11.65
2022-10-11T15:36:51.386Z,11.57
2022-10-11T15:39:28.715Z,11.52
2022-10-11T15:41:57.367Z,11.36
2022-10-11T15:44:24.734Z,11.21
2022-10-11T15:46:51.975Z,11.06
2022-10-11T15:49:19.236Z,10.89
2022-10-11T15:51:46.458Z,10.77
2022-10-11T15:54:13.664Z,10.65
2022-10-11T15:56:43.227Z,10.59
2022-10-11T15:59:11.743Z,10.52
2022-10-11T16:01:39.764Z,10.41
2022-10-11T16:04:06.991Z,10.31
2022-10-11T16:06:34.208Z,10.19
2022-10-11T16:09:01.369Z,10.06
2022-10-11T16:11:28.637Z,9.85
2022-10-11T16:13:57.448Z,9.75
2022-10-11T16:16:24.675Z,9.71
2022-10-11T16:18:51.922Z,9.70
2022-10-11T16:21:24.073Z,9.74
2022-10-11T16:23:51.483Z,9.69
2022-10-11T16:26:18.752Z,9.60
2022-10-11T16:28:47.768Z,9.50
2022-10-11T16:31:20.775Z,9.39
2022-10-11T16:33:48.266Z,9.28
2022-10-11T16:36:35.206Z,9.22
2022-10-11T16:39:05.576Z,9.12
2022-10-11T16:41:32.895Z,9.06
2022-10-11T16:44:00.335Z,8.98
2022-10-11T16:46:29.107Z,8.95
2022-10-11T16:48:56.509Z,8.94
2022-10-11T16:51:26.978Z,8.89
2022-10-11T16:53:54.233Z,8.87
2022-10-11T16:56:22.834Z,8.78
2022-10-11T16:58:50.616Z,8.75
2022-10-11T17:01:18.416Z,8.64
2022-10-11T17:03:48.636Z,8.58
2022-10-11T17:06:15.772Z,8.53
2022-10-11T17:08:42.980Z,8.52
2022-10-11T17:11:10.202Z,8.45
2022-10-11T17:13:37.453Z,8.41
2022-10-11T17:16:05.425Z,8.39
2022-10-11T17:18:32.884Z,8.37
2022-10-11T17:21:06.567Z,8.32
2022-10-11T17:23:35.689Z,8.29
2022-10-11T17:26:10.051Z,8.34
2022-10-11T17:28:39.015Z,8.37
2022-10-11T17:31:08.006Z,8.34
2022-10-11T17:33:35.947Z,8.36
2022-10-11T17:36:14.147Z,8.34
2022-10-11T17:38:41.324Z,8.31
2022-10-11T17:41:09.442Z,8.27
2022-10-11T17:43:38.159Z,8.22
2022-10-11T17:46:06.900Z,8.20
2022-10-11T17:48:36.771Z,8.14
2022-10-11T17:51:10.110Z,8.08
2022-10-11T17:53:38.060Z,8.04
2022-10-11T17:56:06.697Z,7.96
2022-10-11T17:58:34.261Z,7.92
2022-10-11T18:01:11.700Z,7.89
2022-10-11T18:03:40.014Z,7.84
2022-10-11T18:06:11.406Z,7.75
2022-10-11T18:08:40.849Z,7.70
2022-10-11T18:11:10.631Z,7.62
2022-10-11T18:13:37.958Z,7.56
2022-10-11T18:16:05.990Z,7.49
2022-10-11T18:18:33.721Z,7.42
2022-10-11T18:21:01.453Z,7.31
2022-10-11T18:23:32.964Z,7.29
2022-10-11T18:26:08.642Z,7.28
2022-10-11T18:28:36.954Z,7.30
2022-10-11T18:31:11.686Z,7.29
2022-10-11T18:33:40.017Z,7.27
2022-10-11T18:36:18.933Z,7.17
2022-10-11T18:38:49.234Z,7.24
2022-10-11T18:41:18.856Z,7.21
2022-10-11T18:43:49.334Z,7.18
2022-10-11T18:46:16.919Z,7.18
2022-10-11T18:48:45.670Z,7.11
2022-10-11T18:51:15.483Z,7.05
2022-10-11T18:53:42.856Z,7.11
2022-10-11T18:56:13.045Z,7.12
2022-10-11T18:58:41.894Z,7.07
2022-10-11T19:01:12.024Z,7.00
2022-10-11T19:03:39.503Z,6.99
2022-10-11T19:06:16.777Z,6.97
2022-10-11T19:08:43.984Z,6.93
2022-10-11T19:11:13.704Z,6.89
2022-10-11T19:13:41.064Z,6.84
2022-10-11T19:16:11.706Z,6.84
2022-10-11T19:18:43.914Z,6.89
2022-10-11T19:21:12.994Z,6.82
2022-10-11T19:23:42.305Z,6.84
2022-10-11T19:26:15.185Z,6.80
2022-10-11T19:28:43.370Z,6.75
2022-10-11T19:31:13.179Z,6.73
2022-10-11T19:33:40.584Z,6.74
2022-10-11T19:36:15.520Z,6.78
2022-10-11T19:38:45.214Z,6.80
2022-10-11T19:41:14.774Z,6.93
2022-10-11T19:43:41.990Z,6.94
2022-10-11T19:46:11.406Z,6.90
2022-10-11T19:48:39.816Z,6.81
2022-10-11T19:51:09.125Z,6.70
2022-10-11T19:53:36.821Z,6.64
2022-10-11T19:56:05.954Z,6.58
2022-10-11T19:58:34.987Z,6.51
2022-10-11T20:01:04.863Z,6.51
2022-10-11T20:03:32.540Z,6.44
2022-10-11T20:06:00.627Z,6.32
2022-10-11T20:08:31.417Z,6.23
2022-10-11T20:10:59.104Z,6.16
2022-10-11T20:13:29.935Z,6.16
2022-10-11T20:16:02.608Z,6.19
2022-10-11T20:18:30.654Z,6.24
2022-10-11T20:21:00.507Z,6.25
2022-10-11T20:23:28.273Z,6.26
2022-10-11T20:26:00.070Z,6.26
2022-10-11T20:28:28.829Z,6.28
2022-10-11T20:30:56.058Z,6.28
2022-10-11T20:33:25.092Z,6.28
2022-10-11T20:35:59.649Z,6.31
2022-10-11T20:38:28.038Z,6.32
2022-10-11T20:40:55.512Z,6.28
2022-10-11T20:43:23.366Z,6.16
2022-10-11T20:46:02.002Z,5.98
2022-10-11T20:48:31.747Z,5.84
2022-10-11T20:50:58.986Z,5.76
2022-10-11T20:53:27.651Z,5.71
2022-10-11T20:55:55.475Z,5.65
2022-10-11T20:58:23.522Z,5.57
2022-10-11T21:00:50.928Z,5.56
2022-10-11T21:03:18.721Z,5.57
2022-10-11T21:05:47.358Z,5.60
2022-10-11T21:08:14.665Z,5.68
2022-10-11T21:10:51.767Z,5.68
2022-10-11T21:13:19.160Z,5.71
2022-10-11T21:15:46.384Z,5.65
2022-10-11T21:18:13.982Z,5.60
2022-10-11T21:20:42.220Z,5.56
2022-10-11T21:23:13.260Z,5.54
2022-10-11T21:25:41.163Z,5.52
2022-10-11T21:28:08.591Z,5.53
2022-10-11T21:30:36.136Z,5.55
2022-10-11T21:33:03.436Z,5.50
2022-10-11T21:35:31.357Z,5.43
2022-10-11T21:37:59.851Z,5.35
2022-10-11T21:40:28.533Z,5.24
2022-10-11T21:42:55.785Z,5.15
2022-10-11T21:45:23.028Z,5.12
2022-10-11T21:47:50.204Z,5.10
2022-10-11T21:50:17.660Z,5.03
2022-10-11T21:52:44.846Z,4.99
2022-10-11T21:55:12.172Z,4.97
2022-10-11T21:57:42.985Z,4.98
2022-10-11T22:00:11.901Z,4.95
2022-10-11T22:02:41.908Z,4.91
2022-10-11T22:05:09.129Z,4.89
2022-10-11T22:07:36.389Z,4.88
2022-10-11T22:10:04.031Z,4.87
2022-10-11T22:12:31.239Z,4.80
2022-10-11T22:14:59.839Z,4.79
2022-10-11T22:17:27.034Z,4.79
2022-10-11T22:19:54.544Z,4.74
2022-10-11T22:22:21.727Z,4.74
2022-10-11T22:24:49.018Z,4.73
2022-10-11T22:27:16.404Z,4.74
2022-10-11T22:29:43.679Z,4.79
2022-10-11T22:32:12.464Z,4.80
2022-10-11T22:34:39.741Z,4.85
2022-10-11T22:37:06.982Z,4.89
2022-10-11T22:39:34.160Z,4.90
2022-10-11T22:42:01.402Z,4.84
2022-10-11T22:44:28.692Z,4.72
2022-10-11T22:46:55.984Z,4.64
2022-10-11T22:49:24.556Z,4.55
2022-10-11T22:51:51.749Z,4.52
2022-10-11T22:54:19.074Z,4.48
2022-10-11T22:56:46.275Z,4.45
2022-10-11T22:59:13.439Z,4.46
2022-10-11T23:01:40.958Z,4.52
2022-10-11T23:04:08.262Z,4.51
2022-10-11T23:06:36.902Z,4.44
2022-10-11T23:09:04.371Z,4.38
2022-10-11T23:11:31.666Z,4.35
2022-10-11T23:13:58.886Z,4.39
2022-10-11T23:16:26.084Z,4.41
2022-10-11T23:18:53.576Z,4.45
2022-10-11T23:21:21.239Z,4.49
2022-10-11T23:23:52.923Z,4.41
2022-10-11T23:26:20.828Z,4.48
2022-10-11T23:28:48.120Z,4.45
2022-10-11T23:31:17.677Z,4.45
2022-10-11T23:33:45.837Z,4.41
2022-10-11T23:36:16.808Z,4.43
2022-10-11T23:38:44.009Z,4.44
2022-10-11T23:41:12.663Z,4.47
2022-10-11T23:43:39.840Z,4.47
2022-10-11T23:46:06.986Z,4.45
2022-10-11T23:48:34.117Z,4.43
2022-10-11T23:51:01.341Z,4.38
2022-10-11T23:53:28.563Z,4.32
2022-10-11T23:55:55.876Z,4.30
2022-10-11T23:58:24.544Z,4.26
